Bookmark and Share
Track history (hours):
 

Nedlloyd Mercator

Last reported at 2014-Apr-21 21:21 UTC. Time now 2014-Apr-25 05:53 UTC.
Position N 29°39' E 032°31'.

Length 278 m; beam 43 m.

Type: Ship (hazmat cat A). MMSI: 246433000.

NotesDate/timePositionNaut miles runAvg speedWind from/ knotsBaromVisibWave heightAir tempDewpointWater temp
2014-Apr-21 21:21N 29°39' E 032°31'1612.4
2014-Apr-21 20:05N 29°55' E 032°33'5 7.8
2014-Apr-21 19:28N 29°59' E 032°35'47 6.0
2014-Apr-21 11:33N 30°45' E 032°20'68 5.1
2014-Apr-20 22:14N 31°51' E 032°36'1113.5
2014-Apr-20 21:26N 32°01' E 032°41'1613.8
2014-Apr-20 20:18N 32°15' E 032°50'1213.8
2014-Apr-20 19:26N 32°25' E 032°56'1213.5
2014-Apr-20 18:33N 32°36' E 033°02'1313.2
2014-Apr-20 17:33N 32°48' E 033°09'1313.0
2014-Apr-20 16:33N 32°60' E 033°16'1313.0
2014-Apr-20 15:33N 33°12' E 033°23'1313.3
2014-Apr-20 14:33N 33°23' E 033°30'6613.3
2014-Apr-20 09:33N 34°23' E 034°05'394 7.8
2014-Apr-18 07:05N 36°41' E 026°30'2818.1
2014-Apr-18 05:32N 37°03' E 026°09'1818.1
2014-Apr-18 04:33N 37°18' E 025°59'1818.2
2014-Apr-18 03:33N 37°36' E 025°52'2417.8
2014-Apr-18 02:13N 37°59' E 025°44'  

Dump ship's entire track history

sailing weather and tide predictions

Nedlloyd Mercator — PCIM — position and weather